createdAt,value
2019-05-29T00:00:18.261Z,5.53
2019-05-29T00:02:47.766Z,4.60
2019-05-29T00:05:17.038Z,5.37
2019-05-29T00:07:46.338Z,5.65
2019-05-29T00:10:15.678Z,4.67
2019-05-29T00:12:44.974Z,4.95
2019-05-29T00:15:14.803Z,4.85
2019-05-29T00:17:44.091Z,5.00
2019-05-29T00:20:14.636Z,4.45
2019-05-29T00:22:43.973Z,4.25
2019-05-29T00:25:14.504Z,4.60
2019-05-29T00:27:44.055Z,4.30
2019-05-29T00:30:14.997Z,4.50
2019-05-29T00:32:44.428Z,3.98
2019-05-29T00:35:14.413Z,4.58
2019-05-29T00:37:43.758Z,4.50
2019-05-29T00:40:14.966Z,4.10
2019-05-29T00:42:44.634Z,3.45
2019-05-29T00:45:15.498Z,4.37
2019-05-29T00:47:44.922Z,4.10
2019-05-29T00:50:14.770Z,4.85
2019-05-29T00:52:44.071Z,5.10
2019-05-29T00:55:14.564Z,4.50
2019-05-29T00:57:43.983Z,4.37
2019-05-29T01:00:13.810Z,4.33
2019-05-29T01:02:43.136Z,4.05
2019-05-29T01:05:13.851Z,4.53
2019-05-29T01:07:43.212Z,4.47
2019-05-29T01:10:14.604Z,4.03
2019-05-29T01:12:43.940Z,4.00
2019-05-29T01:15:15.378Z,4.37
2019-05-29T01:17:44.988Z,4.33
2019-05-29T01:20:15.897Z,3.30
2019-05-29T01:22:45.374Z,4.00
2019-05-29T01:25:14.748Z,4.28
2019-05-29T01:27:44.028Z,4.25
2019-05-29T01:30:13.588Z,4.53
2019-05-29T01:32:42.880Z,3.33
2019-05-29T01:35:13.716Z,3.80
2019-05-29T01:37:43.075Z,3.80
2019-05-29T01:40:20.995Z,3.65
2019-05-29T01:42:43.688Z,4.17
2019-05-29T01:45:15.314Z,3.45
2019-05-29T01:47:45.100Z,3.65
2019-05-29T01:50:15.595Z,4.22
2019-05-29T01:52:44.976Z,4.25
2019-05-29T01:55:15.626Z,4.10
2019-05-29T01:57:45.163Z,3.95
2019-05-29T02:00:15.732Z,4.47
2019-05-29T02:02:45.159Z,4.40
2019-05-29T02:05:15.654Z,4.45
2019-05-29T02:07:45.336Z,4.10
2019-05-29T02:10:15.897Z,3.85
2019-05-29T02:12:45.350Z,4.05
2019-05-29T02:15:29.517Z,4.05
2019-05-29T02:17:47.566Z,3.10
2019-05-29T02:20:17.095Z,3.90
2019-05-29T02:22:46.371Z,4.55
2019-05-29T02:25:17.539Z,3.70
2019-05-29T02:27:46.735Z,3.70
2019-05-29T02:30:18.650Z,3.95
2019-05-29T02:32:47.668Z,3.87
2019-05-29T02:35:17.945Z,3.75
2019-05-29T02:37:47.347Z,3.60
2019-05-29T02:40:18.649Z,4.10
2019-05-29T02:42:47.960Z,3.30
2019-05-29T02:45:19.314Z,3.35
2019-05-29T02:47:48.834Z,4.03
2019-05-29T02:50:19.720Z,4.62
2019-05-29T02:52:49.200Z,2.83
2019-05-29T02:55:18.504Z,3.83
2019-05-29T02:57:47.799Z,3.62
2019-05-29T03:00:18.553Z,3.10
2019-05-29T03:02:47.844Z,3.45
2019-05-29T03:05:17.396Z,3.92
2019-05-29T03:07:46.757Z,3.35
2019-05-29T03:10:16.183Z,3.65
2019-05-29T03:12:45.548Z,4.75
2019-05-29T03:15:15.004Z,3.75
2019-05-29T03:17:44.295Z,3.35
2019-05-29T03:20:13.868Z,2.95
2019-05-29T03:22:43.156Z,2.83
2019-05-29T03:25:12.714Z,3.70
2019-05-29T03:27:42.014Z,3.62
2019-05-29T03:30:11.425Z,3.37
2019-05-29T03:32:47.001Z,3.45
2019-05-29T03:35:11.735Z,3.70
2019-05-29T03:37:41.069Z,3.72
2019-05-29T03:40:10.484Z,3.20
2019-05-29T03:42:39.793Z,3.87
2019-05-29T03:45:09.143Z,3.10
2019-05-29T03:47:38.438Z,3.52
2019-05-29T03:50:08.272Z,3.60
2019-05-29T03:52:38.824Z,4.25
2019-05-29T03:55:09.908Z,3.60
2019-05-29T03:57:39.185Z,3.50
2019-05-29T04:00:08.818Z,3.72
2019-05-29T04:02:38.467Z,3.90
2019-05-29T04:05:09.513Z,3.65
2019-05-29T04:07:38.807Z,4.22
2019-05-29T04:10:09.337Z,3.30
2019-05-29T04:12:39.555Z,2.80
2019-05-29T04:15:09.367Z,2.98
2019-05-29T04:17:40.012Z,2.90
2019-05-29T04:20:09.921Z,3.58
2019-05-29T04:22:44.376Z,2.80
2019-05-29T04:25:14.767Z,2.85
2019-05-29T04:27:45.601Z,3.25
2019-05-29T04:30:15.043Z,2.70
2019-05-29T04:32:44.313Z,3.15
2019-05-29T04:35:13.922Z,3.30
2019-05-29T04:37:43.524Z,2.80
2019-05-29T04:40:13.747Z,2.55
2019-05-29T04:42:43.021Z,2.98
2019-05-29T04:45:12.760Z,3.33
2019-05-29T04:47:42.032Z,3.10
2019-05-29T04:50:11.389Z,3.02
2019-05-29T04:52:40.969Z,2.87
2019-05-29T04:55:10.431Z,2.40
2019-05-29T04:57:39.720Z,2.40
2019-05-29T05:00:09.648Z,2.80
2019-05-29T05:02:39.435Z,2.85
2019-05-29T05:05:09.521Z,2.55
2019-05-29T05:07:39.679Z,2.92
2019-05-29T05:10:09.656Z,2.22
2019-05-29T05:12:40.470Z,2.42
2019-05-29T05:15:11.212Z,2.30
2019-05-29T05:17:40.732Z,2.90
2019-05-29T05:20:10.647Z,2.35
2019-05-29T05:22:40.993Z,2.92
2019-05-29T05:25:10.467Z,1.52
2019-05-29T05:27:40.674Z,1.90
2019-05-29T05:30:10.271Z,2.17
2019-05-29T05:32:40.941Z,2.52
2019-05-29T05:35:14.160Z,2.17
2019-05-29T05:37:41.598Z,2.35
2019-05-29T05:40:10.971Z,2.50
2019-05-29T05:42:41.270Z,2.40
2019-05-29T05:45:10.801Z,1.82
2019-05-29T05:47:54.012Z,2.10
2019-05-29T05:50:11.606Z,1.95
2019-05-29T05:52:41.643Z,2.25
2019-05-29T05:55:11.210Z,2.00
2019-05-29T05:57:41.754Z,1.80
2019-05-29T06:00:12.374Z,2.05
2019-05-29T06:02:42.121Z,2.33
2019-05-29T06:05:11.670Z,1.98
2019-05-29T06:07:42.430Z,2.30
2019-05-29T06:10:12.244Z,1.75
2019-05-29T06:12:42.875Z,1.75
2019-05-29T06:15:12.630Z,1.80
2019-05-29T06:17:51.393Z,2.20
2019-05-29T06:20:13.511Z,2.55
2019-05-29T06:22:43.600Z,2.20
2019-05-29T06:25:13.407Z,1.85
2019-05-29T06:27:43.331Z,2.40
2019-05-29T06:30:13.137Z,1.92
2019-05-29T06:32:43.528Z,1.92
2019-05-29T06:35:13.043Z,1.70
2019-05-29T06:37:42.344Z,2.10
2019-05-29T06:40:11.856Z,2.10
2019-05-29T06:42:41.955Z,1.98
2019-05-29T06:45:11.329Z,2.30
2019-05-29T06:47:42.654Z,1.95
2019-05-29T06:50:12.330Z,2.33
2019-05-29T06:52:41.907Z,2.50
2019-05-29T06:55:11.205Z,2.77
2019-05-29T06:57:42.469Z,2.30
2019-05-29T07:00:11.823Z,1.72
2019-05-29T07:02:41.105Z,2.00
2019-05-29T07:05:10.460Z,2.05
2019-05-29T07:07:40.295Z,3.27
2019-05-29T07:10:10.375Z,1.50
2019-05-29T07:12:40.322Z,1.70
2019-05-29T07:15:10.367Z,2.77
2019-05-29T07:17:40.417Z,1.72
2019-05-29T07:20:10.154Z,1.80
2019-05-29T07:22:40.782Z,1.40
2019-05-29T07:25:10.432Z,2.50
2019-05-29T07:27:40.773Z,2.60
2019-05-29T07:30:10.621Z,2.00
2019-05-29T07:32:40.996Z,2.08
2019-05-29T07:35:11.223Z,2.45
2019-05-29T07:37:41.683Z,2.55
2019-05-29T07:40:11.823Z,2.27
2019-05-29T07:42:45.285Z,2.10
2019-05-29T07:45:12.534Z,1.87
2019-05-29T07:47:42.545Z,2.00
2019-05-29T07:50:12.936Z,1.80
2019-05-29T07:52:43.340Z,2.58
2019-05-29T07:55:13.380Z,2.45
2019-05-29T07:57:42.864Z,1.98
2019-05-29T08:00:12.558Z,1.92
2019-05-29T08:02:43.313Z,3.00
2019-05-29T08:05:13.815Z,2.60
2019-05-29T08:07:43.423Z,2.70
2019-05-29T08:10:13.406Z,2.27
2019-05-29T08:12:48.389Z,2.77
2019-05-29T08:15:13.899Z,1.92
2019-05-29T08:17:44.098Z,2.27
2019-05-29T08:20:14.088Z,2.05
2019-05-29T08:22:44.418Z,2.12
2019-05-29T08:25:14.103Z,1.80
2019-05-29T08:27:44.720Z,2.87
2019-05-29T08:30:17.026Z,2.55
2019-05-29T08:32:46.979Z,2.95
2019-05-29T08:35:16.584Z,2.92
2019-05-29T08:37:46.927Z,2.30
2019-05-29T08:40:16.460Z,2.95
2019-05-29T08:42:45.755Z,2.30
2019-05-29T08:45:15.540Z,2.27
2019-05-29T08:47:45.612Z,2.22
2019-05-29T08:50:18.569Z,2.67
2019-05-29T08:52:46.142Z,2.55
2019-05-29T08:55:15.839Z,2.50
2019-05-29T08:57:46.246Z,2.30
2019-05-29T09:00:16.786Z,2.65
2019-05-29T09:02:46.631Z,2.00
2019-05-29T09:05:16.422Z,2.70
2019-05-29T09:07:47.603Z,1.90
2019-05-29T09:10:18.590Z,2.40
2019-05-29T09:12:57.202Z,2.05
2019-05-29T09:15:21.557Z,2.17
2019-05-29T09:17:50.007Z,2.35
2019-05-29T09:20:32.092Z,2.20
2019-05-29T09:22:50.445Z,2.30
2019-05-29T09:25:21.060Z,1.90
2019-05-29T09:27:50.491Z,2.05
2019-05-29T09:30:20.142Z,2.65
2019-05-29T09:32:52.547Z,2.85
2019-05-29T09:35:21.930Z,2.27
2019-05-29T09:37:51.687Z,2.47
2019-05-29T09:40:21.379Z,2.22
2019-05-29T09:42:50.655Z,2.55
2019-05-29T09:45:19.959Z,3.27
2019-05-29T09:47:49.495Z,2.12
2019-05-29T09:50:20.815Z,2.58
2019-05-29T09:52:50.245Z,3.15
2019-05-29T09:55:19.769Z,2.05
2019-05-29T09:57:49.045Z,1.77
2019-05-29T10:00:18.764Z,2.02
2019-05-29T10:02:48.363Z,2.45
2019-05-29T10:05:20.867Z,2.40
2019-05-29T10:07:50.220Z,2.22
2019-05-29T10:10:21.333Z,2.27
2019-05-29T10:12:50.611Z,2.72
2019-05-29T10:15:20.669Z,2.22
2019-05-29T10:17:49.948Z,1.82
2019-05-29T10:20:20.312Z,2.02
2019-05-29T10:22:49.584Z,1.90
2019-05-29T10:25:19.862Z,2.20
2019-05-29T10:27:49.159Z,2.17
2019-05-29T10:30:18.858Z,2.08
2019-05-29T10:32:48.298Z,1.90
2019-05-29T10:35:18.089Z,2.75
2019-05-29T10:37:48.603Z,2.47
2019-05-29T10:40:18.423Z,2.62
2019-05-29T10:42:49.008Z,2.12
2019-05-29T10:45:18.864Z,1.87
2019-05-29T10:47:49.656Z,2.13
2019-05-29T10:50:19.326Z,2.10
2019-05-29T10:52:48.608Z,2.35
2019-05-29T10:55:20.920Z,3.37
2019-05-29T10:57:50.796Z,2.17
2019-05-29T11:00:21.511Z,2.37
2019-05-29T11:02:54.743Z,2.10
2019-05-29T11:05:21.788Z,1.72
2019-05-29T11:07:51.876Z,2.92
2019-05-29T11:10:21.338Z,1.57
2019-05-29T11:12:50.797Z,1.57
2019-05-29T11:15:21.917Z,2.27
2019-05-29T11:17:51.578Z,1.90
2019-05-29T11:20:22.430Z,1.72
2019-05-29T11:22:51.756Z,1.52
2019-05-29T11:25:26.656Z,1.60
2019-05-29T11:27:53.189Z,1.70
2019-05-29T11:30:23.112Z,1.92
2019-05-29T11:32:54.950Z,1.60
2019-05-29T11:35:23.384Z,1.50
2019-05-29T11:37:52.706Z,1.40
2019-05-29T11:40:22.180Z,1.25
2019-05-29T11:42:52.667Z,1.60
2019-05-29T11:45:22.510Z,2.17
2019-05-29T11:47:53.700Z,1.40
2019-05-29T11:50:23.048Z,1.30
2019-05-29T11:52:52.401Z,1.50
2019-05-29T11:55:21.824Z,2.10
2019-05-29T11:57:51.810Z,1.10
2019-05-29T12:00:21.956Z,2.00
2019-05-29T12:02:51.709Z,1.00
2019-05-29T12:05:22.595Z,1.15
2019-05-29T12:07:53.310Z,1.90
2019-05-29T12:10:23.023Z,1.30
2019-05-29T12:12:53.413Z,1.22
2019-05-29T12:15:22.757Z,1.17
2019-05-29T12:18:00.258Z,1.60
2019-05-29T12:20:27.675Z,1.25
2019-05-29T12:23:21.968Z,1.45
2019-05-29T12:25:25.353Z,1.55
2019-05-29T12:27:55.304Z,1.60
2019-05-29T12:30:25.258Z,1.60
2019-05-29T12:32:54.804Z,1.20
2019-05-29T12:35:24.426Z,1.37
2019-05-29T12:37:55.118Z,1.02
2019-05-29T12:40:24.722Z,1.00
2019-05-29T12:42:55.501Z,1.10
2019-05-29T12:45:26.170Z,0.93
2019-05-29T12:47:56.513Z,0.90
2019-05-29T12:50:27.273Z,1.07
2019-05-29T12:52:57.695Z,0.90
2019-05-29T12:55:27.121Z,1.30
2019-05-29T12:57:57.903Z,1.00
2019-05-29T13:00:27.524Z,1.20
2019-05-29T13:02:58.313Z,0.80
2019-05-29T13:05:27.790Z,0.85
2019-05-29T13:07:58.672Z,1.20
2019-05-29T13:10:31.080Z,1.05
2019-05-29T13:13:04.864Z,1.00
2019-05-29T13:15:30.560Z,1.50
2019-05-29T13:18:05.297Z,1.20
2019-05-29T13:20:30.833Z,0.82
2019-05-29T13:23:02.443Z,1.10
2019-05-29T13:25:31.096Z,0.95
2019-05-29T13:28:01.571Z,1.40
2019-05-29T13:30:31.367Z,1.00
2019-05-29T13:33:03.634Z,0.95
2019-05-29T13:35:31.758Z,1.00
2019-05-29T13:38:01.063Z,0.88
2019-05-29T13:40:30.689Z,0.72
2019-05-29T13:43:05.523Z,1.20
2019-05-29T13:45:31.004Z,1.22
2019-05-29T13:48:01.373Z,0.95
2019-05-29T13:50:30.867Z,0.90
2019-05-29T13:53:01.278Z,1.02
2019-05-29T13:55:30.825Z,0.80
2019-05-29T13:58:00.170Z,0.80
2019-05-29T14:00:33.879Z,0.80
2019-05-29T14:03:00.526Z,1.02
2019-05-29T14:05:29.779Z,1.10
2019-05-29T14:08:00.520Z,0.70
2019-05-29T14:10:30.017Z,0.80
2019-05-29T14:12:59.364Z,0.95
2019-05-29T14:15:28.646Z,1.00
2019-05-29T14:17:57.949Z,1.25
2019-05-29T14:20:27.236Z,0.80
2019-05-29T14:22:56.504Z,0.78
2019-05-29T14:25:25.806Z,1.15
2019-05-29T14:27:55.072Z,0.80
2019-05-29T14:30:24.800Z,0.90
2019-05-29T14:32:54.087Z,0.80
2019-05-29T14:35:23.376Z,1.00
2019-05-29T14:37:52.648Z,0.80
2019-05-29T14:40:21.944Z,1.10
2019-05-29T14:42:51.220Z,1.00
2019-05-29T14:45:20.648Z,0.90
2019-05-29T14:47:50.270Z,0.90
2019-05-29T14:50:19.692Z,1.00
2019-05-29T14:52:48.963Z,1.00
2019-05-29T14:55:19.107Z,0.80
2019-05-29T14:57:48.396Z,0.80
2019-05-29T15:00:24.980Z,0.82
2019-05-29T15:02:49.554Z,1.32
2019-05-29T15:05:19.159Z,1.15
2019-05-29T15:07:48.445Z,0.80
2019-05-29T15:10:27.010Z,0.70
2019-05-29T15:12:49.895Z,0.80
2019-05-29T15:15:19.876Z,0.60
2019-05-29T15:17:49.451Z,0.80
2019-05-29T15:20:19.120Z,0.70
2019-05-29T15:22:48.673Z,0.80
2019-05-29T15:25:24.019Z,1.10
2019-05-29T15:27:49.520Z,0.60
2019-05-29T15:30:23.378Z,0.53
2019-05-29T15:32:51.174Z,0.60
2019-05-29T15:35:20.708Z,0.80
2019-05-29T15:37:50.215Z,0.85
2019-05-29T15:40:19.913Z,0.95
2019-05-29T15:42:49.208Z,1.25
2019-05-29T15:45:18.724Z,0.68
2019-05-29T15:47:48.465Z,1.00
2019-05-29T15:50:18.188Z,1.20
2019-05-29T15:52:47.848Z,0.70
2019-05-29T15:55:28.526Z,0.70
2019-05-29T15:57:48.181Z,0.80
2019-05-29T16:00:17.856Z,0.90
2019-05-29T16:02:49.080Z,0.85
2019-05-29T16:05:19.503Z,0.80
2019-05-29T16:07:48.861Z,0.70
2019-05-29T16:10:20.708Z,0.95
2019-05-29T16:12:49.320Z,1.00
2019-05-29T16:15:19.509Z,0.70
2019-05-29T16:17:49.005Z,0.90
2019-05-29T16:20:19.311Z,1.00
2019-05-29T16:22:48.596Z,1.25
2019-05-29T16:25:38.345Z,1.47
2019-05-29T16:27:53.157Z,1.95
2019-05-29T16:30:22.998Z,1.00
2019-05-29T16:32:52.323Z,0.82
2019-05-29T16:35:21.606Z,0.68
2019-05-29T16:37:51.141Z,0.95
2019-05-29T16:40:21.940Z,1.10
2019-05-29T16:42:51.330Z,0.85
2019-05-29T16:45:20.835Z,0.80
2019-05-29T16:47:50.544Z,0.90
2019-05-29T16:50:21.207Z,1.00
2019-05-29T16:52:50.568Z,0.90
2019-05-29T16:55:21.060Z,0.85
2019-05-29T16:57:50.460Z,0.93
2019-05-29T17:00:21.729Z,0.82
2019-05-29T17:02:51.151Z,0.80
2019-05-29T17:05:21.872Z,0.85
2019-05-29T17:07:51.468Z,1.20
2019-05-29T17:10:24.651Z,0.75
2019-05-29T17:12:54.247Z,0.90
2019-05-29T17:15:24.784Z,0.80
2019-05-29T17:17:54.103Z,0.90
2019-05-29T17:20:43.046Z,0.95
2019-05-29T17:23:12.756Z,0.70
2019-05-29T17:25:42.139Z,0.80
2019-05-29T17:28:11.417Z,0.90
2019-05-29T17:30:40.964Z,0.78
2019-05-29T17:33:10.308Z,0.80
2019-05-29T17:35:39.591Z,1.12
2019-05-29T17:38:09.167Z,0.80
2019-05-29T17:40:38.473Z,0.80
2019-05-29T17:43:07.976Z,1.20
2019-05-29T17:45:37.268Z,0.70
2019-05-29T17:48:06.623Z,0.70
2019-05-29T17:50:36.840Z,0.90
2019-05-29T17:53:06.353Z,1.07
2019-05-29T17:55:35.632Z,0.72
2019-05-29T17:58:04.996Z,0.80
2019-05-29T18:00:34.287Z,0.82
2019-05-29T18:03:03.723Z,0.70
2019-05-29T18:05:36.209Z,0.75
2019-05-29T18:08:04.139Z,0.70
2019-05-29T18:10:33.411Z,0.80
2019-05-29T18:13:02.679Z,1.37
2019-05-29T18:15:31.984Z,1.12
2019-05-29T18:18:01.480Z,1.07
2019-05-29T18:20:31.077Z,0.90
2019-05-29T18:23:00.571Z,1.42
2019-05-29T18:25:30.191Z,0.80
2019-05-29T18:27:59.473Z,1.30
2019-05-29T18:30:28.936Z,1.10
2019-05-29T18:32:58.271Z,0.90
2019-05-29T18:35:27.548Z,1.00
2019-05-29T18:37:56.837Z,1.02
2019-05-29T18:40:26.478Z,0.70
2019-05-29T18:42:56.008Z,0.80
2019-05-29T18:45:27.813Z,1.25
2019-05-29T18:47:57.668Z,1.80
2019-05-29T18:50:27.562Z,1.05
2019-05-29T18:52:57.312Z,1.07
2019-05-29T18:55:27.042Z,1.05
2019-05-29T18:57:56.380Z,1.15
2019-05-29T19:00:27.380Z,1.30
2019-05-29T19:02:56.956Z,1.10
2019-05-29T19:05:27.594Z,1.40
2019-05-29T19:07:57.307Z,1.60
2019-05-29T19:10:27.666Z,1.00
2019-05-29T19:12:57.160Z,1.60
2019-05-29T19:15:26.447Z,2.08
2019-05-29T19:17:55.728Z,1.35
2019-05-29T19:20:26.166Z,1.37
2019-05-29T19:22:55.748Z,1.32
2019-05-29T19:25:25.043Z,1.40
2019-05-29T19:27:54.327Z,1.20
2019-05-29T19:30:24.868Z,1.22
2019-05-29T19:32:54.556Z,1.32
2019-05-29T19:35:23.837Z,1.20
2019-05-29T19:37:53.119Z,1.12
2019-05-29T19:40:22.398Z,1.12
2019-05-29T19:42:54.609Z,0.98
2019-05-29T19:45:24.417Z,1.10
2019-05-29T19:47:54.044Z,1.50
2019-05-29T19:50:24.582Z,1.12
2019-05-29T19:52:53.992Z,1.20
2019-05-29T19:55:23.264Z,0.88
2019-05-29T19:57:56.499Z,1.35
2019-05-29T20:00:23.689Z,1.20
2019-05-29T20:02:52.974Z,1.42
2019-05-29T20:05:22.282Z,1.60
2019-05-29T20:07:51.547Z,1.00
2019-05-29T20:10:20.836Z,1.05
2019-05-29T20:12:50.107Z,1.02
2019-05-29T20:15:19.475Z,1.25
2019-05-29T20:17:48.753Z,1.10
2019-05-29T20:20:18.283Z,1.85
2019-05-29T20:22:47.559Z,1.10
2019-05-29T20:25:17.150Z,1.00
2019-05-29T20:27:46.416Z,1.35
2019-05-29T20:30:17.667Z,1.65
2019-05-29T20:32:47.795Z,1.87
2019-05-29T20:35:17.989Z,1.45
2019-05-29T20:37:47.596Z,1.15
2019-05-29T20:40:18.340Z,1.75
2019-05-29T20:42:47.623Z,1.20
2019-05-29T20:45:18.745Z,1.52
2019-05-29T20:47:48.283Z,1.27
2019-05-29T20:50:17.716Z,1.25
2019-05-29T20:52:46.990Z,1.40
2019-05-29T20:55:16.522Z,1.30
2019-05-29T20:57:45.795Z,1.50
2019-05-29T21:00:17.097Z,1.05
2019-05-29T21:02:46.412Z,1.00
2019-05-29T21:05:15.926Z,1.32
2019-05-29T21:07:45.216Z,1.37
2019-05-29T21:10:16.129Z,1.10
2019-05-29T21:12:47.569Z,1.30
2019-05-29T21:15:17.620Z,1.22
2019-05-29T21:17:46.883Z,1.20
2019-05-29T21:20:16.352Z,1.45
2019-05-29T21:22:45.628Z,1.60
2019-05-29T21:25:18.915Z,1.47
2019-05-29T21:27:49.180Z,1.80
2019-05-29T21:30:20.480Z,1.70
2019-05-29T21:32:49.756Z,1.72
2019-05-29T21:35:19.039Z,1.60
2019-05-29T21:37:48.310Z,1.55
2019-05-29T21:40:17.768Z,2.25
2019-05-29T21:42:47.339Z,1.40
2019-05-29T21:45:16.692Z,1.85
2019-05-29T21:47:47.219Z,2.02
2019-05-29T21:50:17.183Z,1.47
2019-05-29T21:52:47.641Z,1.77
2019-05-29T21:55:17.203Z,1.85
2019-05-29T21:57:48.734Z,1.90
2019-05-29T22:00:20.183Z,1.92
2019-05-29T22:02:49.840Z,1.40
2019-05-29T22:05:19.193Z,1.98
2019-05-29T22:07:48.975Z,1.77
2019-05-29T22:10:18.352Z,1.82
2019-05-29T22:12:48.030Z,1.80
2019-05-29T22:15:17.696Z,1.75
2019-05-29T22:17:47.056Z,1.70
2019-05-29T22:20:16.568Z,1.57
2019-05-29T22:22:45.865Z,1.70
2019-05-29T22:25:15.389Z,1.70
2019-05-29T22:27:44.703Z,2.10
2019-05-29T22:30:14.444Z,1.65
2019-05-29T22:32:43.728Z,2.72
2019-05-29T22:35:13.159Z,2.17
2019-05-29T22:37:42.443Z,2.10
2019-05-29T22:40:12.331Z,2.55
2019-05-29T22:42:42.546Z,2.00
2019-05-29T22:45:12.975Z,2.00
2019-05-29T22:47:42.248Z,2.12
2019-05-29T22:50:11.782Z,1.72
2019-05-29T22:52:41.094Z,1.92
2019-05-29T22:55:10.635Z,2.02
2019-05-29T22:57:39.924Z,2.12
2019-05-29T23:00:09.852Z,1.95
2019-05-29T23:02:39.147Z,1.65
2019-05-29T23:05:08.663Z,1.67
2019-05-29T23:07:38.212Z,2.58
2019-05-29T23:10:08.163Z,2.27
2019-05-29T23:12:37.469Z,1.85
2019-05-29T23:15:08.502Z,1.90
2019-05-29T23:17:37.766Z,1.52
2019-05-29T23:20:08.507Z,1.77
2019-05-29T23:22:38.071Z,2.00
2019-05-29T23:25:08.617Z,1.90
2019-05-29T23:27:37.892Z,2.02
2019-05-29T23:30:09.350Z,1.50
2019-05-29T23:32:38.993Z,1.60
2019-05-29T23:35:08.827Z,1.62
2019-05-29T23:37:38.107Z,1.62
2019-05-29T23:40:11.304Z,1.70
2019-05-29T23:42:40.584Z,1.62
2019-05-29T23:45:10.056Z,1.67
2019-05-29T23:47:39.336Z,1.72
2019-05-29T23:50:09.424Z,1.60
2019-05-29T23:52:38.704Z,2.27
2019-05-29T23:55:09.131Z,1.72
2019-05-29T23:57:38.427Z,1.92
